Time;durP1;ratioP1;P1;durP2;ratioP2;P2;SDS_P1;SDS_P2;PMS_P1;PMS_P2;Temp;Humidity;BMP_temperature;BMP_pressure;BME280_temperature;BME280_humidity;BME280_pressure;Samples;Min_cycle;Max_cycle;Signal;HPM_P1;HPM_P2
2021/01/07 00:00:37;;;;;;;10.80;7.78;;;2.70;99.90;;;;;;5012973;28;20464;-86
2021/01/07 00:03:03;;;;;;;10.63;6.97;;;2.70;99.90;;;;;;5013701;28;20283;-87
2021/01/07 00:05:29;;;;;;;10.27;7.00;;;2.60;99.90;;;;;;5022621;28;20556;-87
2021/01/07 00:07:57;;;;;;;10.60;8.00;;;2.60;99.90;;;;;;5018747;28;20449;-88
2021/01/07 00:10:23;;;;;;;11.10;8.07;;;2.50;99.90;;;;;;5023929;28;20458;-88
2021/01/07 00:12:50;;;;;;;11.10;7.23;;;2.60;99.90;;;;;;5022303;28;20507;-88
2021/01/07 00:15:16;;;;;;;10.77;7.00;;;2.60;99.90;;;;;;5018494;28;21286;-88
2021/01/07 00:17:42;;;;;;;11.37;7.57;;;2.60;99.90;;;;;;5020054;28;20531;-88
2021/01/07 00:20:11;;;;;;;11.00;6.77;;;2.60;99.90;;;;;;5015946;28;20471;-87
2021/01/07 00:22:41;;;;;;;10.63;6.87;;;2.60;99.90;;;;;;5016591;28;20525;-88
2021/01/07 00:25:10;;;;;;;13.60;8.80;;;2.60;99.90;;;;;;5015762;28;20519;-87
2021/01/07 00:27:36;;;;;;;11.03;7.77;;;2.60;99.90;;;;;;5009128;28;20457;-87
2021/01/07 00:30:05;;;;;;;10.03;7.77;;;2.60;99.90;;;;;;5017098;28;20485;-86
2021/01/07 00:32:32;;;;;;;12.80;7.60;;;2.60;99.90;;;;;;5016948;28;20478;-86
2021/01/07 00:34:58;;;;;;;10.33;7.43;;;2.60;99.90;;;;;;5004456;28;20454;-86
2021/01/07 00:37:24;;;;;;;11.77;7.63;;;2.50;99.90;;;;;;5016816;28;20504;-86
2021/01/07 00:39:51;;;;;;;11.97;8.77;;;2.50;99.90;;;;;;5016498;28;20482;-86
2021/01/07 00:42:18;;;;;;;10.40;8.07;;;2.60;99.90;;;;;;5017478;28;20538;-85
2021/01/07 00:44:45;;;;;;;12.13;8.83;;;2.60;99.90;;;;;;5016445;28;20466;-86
2021/01/07 00:47:11;;;;;;;10.70;7.83;;;2.60;99.90;;;;;;5015434;28;20453;-86
2021/01/07 00:49:38;;;;;;;12.70;9.47;;;2.60;99.90;;;;;;5016514;28;20536;-88
2021/01/07 00:52:04;;;;;;;15.00;9.37;;;2.70;99.90;;;;;;5016341;28;20507;-86
2021/01/07 00:54:31;;;;;;;13.27;9.23;;;2.60;99.90;;;;;;5016537;28;20453;-86
2021/01/07 00:56:57;;;;;;;14.00;10.20;;;2.50;99.90;;;;;;5016445;28;20544;-87
2021/01/07 00:59:24;;;;;;;15.97;11.27;;;2.40;99.90;;;;;;5016588;28;20498;-88
2021/01/07 01:01:51;;;;;;;14.73;10.90;;;2.30;99.90;;;;;;5005733;28;20533;-86
2021/01/07 01:04:17;;;;;;;14.90;10.50;;;2.30;99.90;;;;;;5016331;28;20533;-86
2021/01/07 01:06:44;;;;;;;15.63;10.13;;;2.30;99.90;;;;;;5015799;28;20509;-87
2021/01/07 01:09:12;;;;;;;16.60;10.90;;;2.40;99.90;;;;;;5016611;28;20461;-86
2021/01/07 01:11:40;;;;;;;12.83;9.30;;;2.40;99.90;;;;;;5015708;28;20966;-87
2021/01/07 01:14:06;;;;;;;12.37;8.97;;;2.50;99.90;;;;;;5015802;28;20458;-87
2021/01/07 01:16:34;;;;;;;14.20;9.70;;;2.50;99.90;;;;;;5015956;28;20460;-87
2021/01/07 01:19:01;;;;;;;15.60;10.20;;;2.50;99.90;;;;;;5015883;28;20503;-86
2021/01/07 01:21:27;;;;;;;13.93;10.20;;;2.60;99.90;;;;;;5023497;28;20964;-86
2021/01/07 01:23:54;;;;;;;14.70;10.50;;;2.60;99.90;;;;;;5022167;28;20560;-86
2021/01/07 01:26:21;;;;;;;13.50;10.23;;;2.60;99.90;;;;;;5026017;28;20461;-87
2021/01/07 01:28:47;;;;;;;15.97;10.70;;;2.60;99.90;;;;;;5025027;28;20929;-86
2021/01/07 01:31:13;;;;;;;21.07;12.90;;;2.70;99.90;;;;;;5020879;28;20470;-87
2021/01/07 01:33:41;;;;;;;18.17;11.70;;;2.70;99.90;;;;;;5017346;28;20535;-87
2021/01/07 01:36:08;;;;;;;18.30;13.40;;;2.80;99.90;;;;;;5015420;28;20540;-87
2021/01/07 01:38:34;;;;;;;20.47;13.70;;;2.70;99.90;;;;;;5015673;28;20482;-87
2021/01/07 01:41:01;;;;;;;16.77;12.73;;;2.70;99.90;;;;;;5014275;28;20561;-87
2021/01/07 01:43:28;;;;;;;23.17;15.37;;;2.80;99.90;;;;;;5014621;28;20442;-87
2021/01/07 01:45:54;;;;;;;27.40;16.90;;;2.80;99.90;;;;;;5014964;28;20865;-87
2021/01/07 01:48:21;;;;;;;24.40;16.40;;;2.70;99.90;;;;;;5015178;28;20508;-87
2021/01/07 01:50:48;;;;;;;25.33;16.60;;;2.80;99.90;;;;;;5015099;28;20541;-87
2021/01/07 01:53:15;;;;;;;29.30;18.50;;;2.70;99.90;;;;;;5027232;28;20458;-87
2021/01/07 01:55:41;;;;;;;28.03;17.87;;;2.70;99.90;;;;;;5027701;28;20476;-87
2021/01/07 01:58:11;;;;;;;23.77;17.00;;;2.70;99.90;;;;;;5028400;28;20483;-86
2021/01/07 02:00:41;;;;;;;27.30;18.03;;;2.80;99.90;;;;;;5026254;28;20532;-93
2021/01/07 02:03:07;;;;;;;29.00;16.27;;;2.70;99.90;;;;;;5017886;28;20456;-86
2021/01/07 02:05:35;;;;;;;27.73;18.33;;;2.80;99.90;;;;;;5016444;28;20474;-87
2021/01/07 02:08:04;;;;;;;28.13;16.67;;;2.70;99.90;;;;;;5016913;28;20459;-87
2021/01/07 02:10:31;;;;;;;27.23;16.63;;;2.80;99.90;;;;;;5017541;28;20903;-87
2021/01/07 02:12:58;;;;;;;28.87;15.50;;;2.80;99.90;;;;;;5015705;28;20522;-86
2021/01/07 02:15:24;;;;;;;25.20;13.80;;;2.90;99.90;;;;;;5015838;28;20862;-87
2021/01/07 02:17:51;;;;;;;21.60;13.13;;;2.80;99.90;;;;;;5013719;28;20617;-87
2021/01/07 02:20:24;;;;;;;20.17;14.07;;;2.90;99.90;;;;;;5013223;28;20569;-86
2021/01/07 02:22:53;;;;;;;21.33;13.23;;;2.80;99.90;;;;;;5000774;28;20443;-86
2021/01/07 02:25:20;;;;;;;17.50;11.70;;;2.90;99.90;;;;;;5014789;28;20458;-86
2021/01/07 02:27:46;;;;;;;17.40;12.03;;;3.00;99.90;;;;;;5014509;28;20861;-86
2021/01/07 02:30:14;;;;;;;18.33;12.00;;;3.00;99.90;;;;;;5016000;28;20600;-87
2021/01/07 02:32:40;;;;;;;21.53;12.90;;;2.90;99.90;;;;;;5015111;28;20545;-89
2021/01/07 02:35:08;;;;;;;20.27;12.20;;;3.00;99.90;;;;;;5015019;28;20548;-86
2021/01/07 02:37:36;;;;;;;16.90;13.13;;;2.90;99.90;;;;;;5015813;28;20517;-87
2021/01/07 02:40:05;;;;;;;21.20;13.43;;;2.90;99.90;;;;;;5014024;28;20640;-86
2021/01/07 02:42:31;;;;;;;17.70;13.30;;;2.90;99.90;;;;;;5014663;28;20596;-86
2021/01/07 02:44:58;;;;;;;24.67;15.07;;;2.80;99.90;;;;;;5014751;28;20539;-87
2021/01/07 02:47:24;;;;;;;23.37;16.07;;;2.70;99.90;;;;;;5014566;28;20551;-86
2021/01/07 02:49:51;;;;;;;30.47;18.33;;;2.70;99.90;;;;;;5014140;28;20550;-86
2021/01/07 02:52:17;;;;;;;27.93;17.30;;;2.60;99.90;;;;;;5014228;28;20450;-87
2021/01/07 02:54:44;;;;;;;32.77;18.50;;;2.50;99.90;;;;;;5013897;28;20447;-87
2021/01/07 02:57:11;;;;;;;27.30;18.00;;;2.60;99.90;;;;;;5014251;28;20934;-86
2021/01/07 02:59:37;;;;;;;31.37;19.30;;;2.50;99.90;;;;;;5014811;28;20489;-86
2021/01/07 03:02:03;;;;;;;26.93;18.27;;;2.50;99.90;;;;;;5013861;28;20480;-86
2021/01/07 03:04:30;;;;;;;29.17;18.20;;;2.40;99.90;;;;;;5014636;28;20507;-86
2021/01/07 03:06:56;;;;;;;25.57;15.80;;;2.40;99.90;;;;;;5014228;28;20206;-86
2021/01/07 03:09:22;;;;;;;29.77;17.50;;;2.50;99.90;;;;;;5014637;28;20549;-86
2021/01/07 03:11:50;;;;;;;25.63;16.30;;;2.60;99.90;;;;;;5014270;28;20527;-86
2021/01/07 03:14:16;;;;;;;22.43;17.10;;;2.70;99.90;;;;;;5014738;28;20638;-86
2021/01/07 03:16:42;;;;;;;22.87;15.50;;;2.70;99.90;;;;;;5013843;28;20450;-87
2021/01/07 03:19:09;;;;;;;27.47;16.53;;;2.80;99.90;;;;;;5012509;28;20589;-86
2021/01/07 03:21:41;;;;;;;24.30;14.83;;;2.80;99.90;;;;;;5028513;28;20485;-86
2021/01/07 03:24:08;;;;;;;25.90;16.23;;;2.80;99.90;;;;;;4997073;28;20877;-87
2021/01/07 03:26:35;;;;;;;19.60;14.50;;;2.80;99.90;;;;;;5006558;28;20454;-86
2021/01/07 03:29:03;;;;;;;26.90;18.00;;;2.80;99.90;;;;;;5013507;28;20458;-87
2021/01/07 03:31:30;;;;;;;24.23;15.00;;;2.70;99.90;;;;;;5014560;28;20537;-86
2021/01/07 03:33:56;;;;;;;27.00;15.70;;;2.80;99.90;;;;;;5013966;28;20540;-86
2021/01/07 03:36:22;;;;;;;23.10;15.57;;;2.80;99.90;;;;;;5014235;28;20544;-86
2021/01/07 03:38:49;;;;;;;27.47;16.93;;;2.90;99.90;;;;;;5016011;28;20493;-86
2021/01/07 03:41:15;;;;;;;22.00;14.73;;;2.90;99.90;;;;;;5018047;28;20544;-87
2021/01/07 03:43:45;;;;;;;21.13;15.63;;;3.00;99.90;;;;;;5018166;28;20493;-86
2021/01/07 03:46:12;;;;;;;24.07;16.40;;;3.00;99.90;;;;;;5017869;28;20489;-86
2021/01/07 03:48:38;;;;;;;22.90;15.57;;;3.00;99.90;;;;;;5018066;28;20458;-86
2021/01/07 03:51:05;;;;;;;20.40;14.53;;;3.00;99.90;;;;;;5017132;28;20544;-86
2021/01/07 03:53:31;;;;;;;22.50;15.10;;;3.00;99.90;;;;;;5017582;28;20536;-86
2021/01/07 03:55:58;;;;;;;22.10;15.80;;;3.00;99.90;;;;;;5017379;28;20446;-87
2021/01/07 03:58:24;;;;;;;25.00;16.43;;;3.00;99.90;;;;;;5017582;28;20914;-85
2021/01/07 04:00:51;;;;;;;24.50;17.00;;;3.00;99.90;;;;;;5016949;28;20534;-87
2021/01/07 04:03:18;;;;;;;25.33;16.63;;;2.90;99.90;;;;;;5017975;28;20462;-87
2021/01/07 04:05:44;;;;;;;24.03;17.37;;;2.90;99.90;;;;;;5017151;28;20505;-89
2021/01/07 04:08:11;;;;;;;25.70;17.20;;;2.90;99.90;;;;;;5017568;28;20484;-86
2021/01/07 04:10:37;;;;;;;34.67;17.53;;;2.80;99.90;;;;;;5017431;28;20913;-86
2021/01/07 04:13:03;;;;;;;24.53;17.23;;;2.80;99.90;;;;;;5016909;28;20456;-87
2021/01/07 04:15:30;;;;;;;26.63;20.50;;;2.80;99.90;;;;;;5017008;28;20464;-86
2021/01/07 04:17:56;;;;;;;27.93;19.00;;;2.80;99.90;;;;;;5016193;28;20836;-87
2021/01/07 04:20:24;;;;;;;32.00;19.27;;;2.80;99.90;;;;;;5016363;28;20484;-86
2021/01/07 04:22:50;;;;;;;28.63;19.47;;;2.80;99.90;;;;;;5016989;28;20546;-87
2021/01/07 04:25:16;;;;;;;32.47;21.10;;;2.80;99.90;;;;;;5017283;28;20537;-86
2021/01/07 04:27:43;;;;;;;30.40;19.23;;;2.80;99.90;;;;;;5017179;28;20456;-86
2021/01/07 04:30:10;;;;;;;30.43;19.83;;;2.80;99.90;;;;;;5016698;28;20467;-86
2021/01/07 04:32:37;;;;;;;32.53;19.40;;;2.70;99.90;;;;;;5017353;28;20446;-86
2021/01/07 04:35:04;;;;;;;29.40;20.03;;;2.80;99.90;;;;;;5016447;28;20587;-86
2021/01/07 04:37:32;;;;;;;31.80;21.23;;;2.90;99.90;;;;;;5016957;28;20537;-86
2021/01/07 04:39:58;;;;;;;30.97;22.37;;;2.80;99.90;;;;;;5008226;28;20493;-86
2021/01/07 04:42:25;;;;;;;32.23;21.43;;;2.70;99.90;;;;;;5017204;28;20855;-87
2021/01/07 04:44:51;;;;;;;35.70;20.10;;;2.70;99.90;;;;;;5016269;28;20542;-86
2021/01/07 04:47:18;;;;;;;30.30;19.10;;;2.70;99.90;;;;;;5016958;28;20499;-87
2021/01/07 04:49:45;;;;;;;32.10;20.30;;;2.80;99.90;;;;;;5016261;28;20475;-86
2021/01/07 04:52:12;;;;;;;34.13;21.27;;;2.80;99.90;;;;;;5016603;28;20486;-87
2021/01/07 04:54:39;;;;;;;32.90;21.23;;;2.90;99.90;;;;;;5016984;28;20526;-86
2021/01/07 04:57:05;;;;;;;39.10;23.37;;;2.90;99.90;;;;;;5016424;28;20535;-86
2021/01/07 04:59:32;;;;;;;33.80;21.67;;;2.90;99.90;;;;;;5016470;28;20563;-86
2021/01/07 05:01:58;;;;;;;36.43;22.73;;;2.90;99.90;;;;;;5016547;28;20458;-86
2021/01/07 05:04:25;;;;;;;40.17;26.93;;;2.80;99.90;;;;;;5017160;28;20460;-87
2021/01/07 05:06:51;;;;;;;36.10;24.80;;;2.70;99.90;;;;;;5016305;28;20455;-87
2021/01/07 05:09:17;;;;;;;34.47;24.13;;;2.80;99.90;;;;;;5016622;28;20551;-87
2021/01/07 05:11:45;;;;;;;36.23;24.23;;;2.70;99.90;;;;;;5016123;28;20565;-86
2021/01/07 05:14:11;;;;;;;36.70;24.10;;;2.70;99.90;;;;;;5015919;28;20469;-87
2021/01/07 05:16:38;;;;;;;37.77;24.97;;;2.80;99.90;;;;;;5015981;28;20539;-87
2021/01/07 05:19:06;;;;;;;36.90;25.40;;;2.80;99.90;;;;;;5011349;28;20526;-86
2021/01/07 05:21:34;;;;;;;35.47;24.07;;;2.90;99.90;;;;;;5015835;28;20525;-87
2021/01/07 05:24:01;;;;;;;35.60;24.47;;;3.00;99.90;;;;;;5015492;28;20458;-86
2021/01/07 05:26:28;;;;;;;38.80;23.77;;;2.90;99.90;;;;;;5014443;28;20450;-86
2021/01/07 05:28:57;;;;;;;38.00;23.60;;;2.80;99.90;;;;;;5012754;28;20929;-86
2021/01/07 05:31:25;;;;;;;31.73;21.53;;;2.90;99.90;;;;;;5016284;28;20460;-87
2021/01/07 05:33:52;;;;;;;34.20;21.67;;;2.90;99.90;;;;;;5015432;28;20982;-87
2021/01/07 05:36:23;;;;;;;31.10;21.20;;;2.90;99.90;;;;;;5015851;28;20461;-87
2021/01/07 05:38:50;;;;;;;30.97;20.50;;;3.00;99.90;;;;;;5015120;28;20458;-87
2021/01/07 05:41:17;;;;;;;31.50;21.23;;;3.00;99.90;;;;;;5015985;28;20556;-87
2021/01/07 05:43:43;;;;;;;32.77;20.37;;;3.00;99.90;;;;;;5015392;28;20536;-86
2021/01/07 05:46:12;;;;;;;34.73;21.03;;;3.00;99.90;;;;;;5015473;28;20454;-86
2021/01/07 05:48:38;;;;;;;31.27;18.20;;;3.10;99.90;;;;;;5015486;28;20672;-86
2021/01/07 05:51:06;;;;;;;28.27;19.67;;;3.00;99.90;;;;;;5015381;28;20457;-86
2021/01/07 05:53:32;;;;;;;28.77;19.47;;;3.00;99.90;;;;;;5014947;28;20461;-86
2021/01/07 05:55:59;;;;;;;30.13;19.33;;;3.00;99.90;;;;;;5015246;28;20446;-87
2021/01/07 05:58:25;;;;;;;26.70;18.90;;;3.00;99.90;;;;;;5015502;28;20489;-86
2021/01/07 06:00:55;;;;;;;28.87;18.50;;;3.00;99.90;;;;;;5011572;28;20965;-87
2021/01/07 06:03:24;;;;;;;29.47;19.73;;;3.00;99.90;;;;;;5006942;28;20544;-86
2021/01/07 06:05:53;;;;;;;29.67;19.00;;;3.00;99.90;;;;;;5015492;28;20477;-87
2021/01/07 06:08:20;;;;;;;26.27;16.73;;;3.10;99.90;;;;;;5015134;28;20430;-86
2021/01/07 06:10:47;;;;;;;28.33;19.33;;;3.00;99.90;;;;;;5011748;28;20492;-86
2021/01/07 06:13:14;;;;;;;30.07;19.70;;;3.10;99.90;;;;;;5014843;28;20485;-86
2021/01/07 06:15:42;;;;;;;28.77;19.10;;;3.10;99.90;;;;;;5014996;28;20450;-86
2021/01/07 06:18:14;;;;;;;23.60;16.27;;;3.00;99.90;;;;;;5014231;28;20485;-87
2021/01/07 06:20:41;;;;;;;26.63;18.20;;;3.10;99.90;;;;;;5002047;28;20476;-87
2021/01/07 06:23:18;;;;;;;23.70;16.10;;;3.10;99.90;;;;;;4997128;28;20450;-86
2021/01/07 06:25:46;;;;;;;23.23;17.13;;;3.10;99.90;;;;;;5012705;28;20450;-86
2021/01/07 06:28:26;;;;;;;21.07;14.40;;;3.10;99.90;;;;;;5015498;28;20507;-86
2021/01/07 06:30:55;;;;;;;16.17;12.50;;;3.20;99.90;;;;;;4995250;28;20450;-87
2021/01/07 06:33:23;;;;;;;19.70;14.47;;;3.20;99.90;;;;;;5014830;28;20452;-86
2021/01/07 06:35:50;;;;;;;19.43;11.97;;;3.20;99.90;;;;;;5016269;28;20934;-87
2021/01/07 06:38:27;;;;;;;18.13;12.73;;;3.20;99.90;;;;;;5015622;28;20461;-87
2021/01/07 06:40:58;;;;;;;19.57;13.30;;;3.20;99.90;;;;;;5014912;28;20497;-87
2021/01/07 06:43:26;;;;;;;18.33;12.00;;;3.10;99.90;;;;;;5015361;28;20834;-87
2021/01/07 06:45:55;;;;;;;19.40;13.80;;;3.10;99.90;;;;;;5014912;28;20459;-87
2021/01/07 06:48:34;;;;;;;20.97;13.63;;;3.10;99.90;;;;;;5015045;28;20525;-86
2021/01/07 06:51:04;;;;;;;23.47;15.60;;;3.10;99.90;;;;;;5013820;28;20537;-85
2021/01/07 06:53:36;;;;;;;24.40;16.00;;;3.00;99.90;;;;;;5014435;28;20454;-85
2021/01/07 06:56:14;;;;;;;18.50;13.87;;;3.10;99.90;;;;;;5014335;28;20529;-86
2021/01/07 06:58:42;;;;;;;17.43;13.43;;;3.10;99.90;;;;;;5014462;28;20452;-85
2021/01/07 07:01:11;;;;;;;21.07;16.33;;;3.10;99.90;;;;;;5014242;28;20454;-85
2021/01/07 07:03:54;;;;;;;23.00;15.20;;;3.10;99.90;;;;;;5015346;28;20468;-85
2021/01/07 07:06:27;;;;;;;19.20;14.27;;;3.20;99.90;;;;;;5015625;28;20474;-85
2021/01/07 07:08:53;;;;;;;20.83;15.60;;;3.20;99.90;;;;;;5019612;28;20442;-84
2021/01/07 07:11:31;;;;;;;24.53;16.87;;;3.20;99.90;;;;;;5014164;28;20554;-82
2021/01/07 07:14:05;;;;;;;24.57;17.37;;;3.10;99.90;;;;;;5014010;28;20456;-83
2021/01/07 07:16:34;;;;;;;22.43;15.80;;;3.00;99.90;;;;;;5014241;28;20438;-83
2021/01/07 07:19:00;;;;;;;24.87;16.23;;;3.00;99.90;;;;;;5006796;28;20467;-83
2021/01/07 07:21:30;;;;;;;24.00;16.53;;;3.00;99.90;;;;;;5013593;28;20545;-83
2021/01/07 07:24:08;;;;;;;31.92;22.48;;;3.00;99.90;;;;;;5013477;28;20545;-84
2021/01/07 07:26:35;;;;;;;26.00;16.60;;;2.90;99.90;;;;;;5015266;28;20622;-86
2021/01/07 07:29:08;;;;;;;28.40;19.90;;;3.00;99.90;;;;;;5014524;28;20549;-85
2021/01/07 07:31:43;;;;;;;25.93;18.60;;;3.00;99.90;;;;;;5014637;28;20529;-85
2021/01/07 07:34:10;;;;;;;22.90;17.43;;;3.00;99.90;;;;;;5013868;28;20516;-85
2021/01/07 07:36:38;;;;;;;34.23;21.00;;;3.10;99.90;;;;;;5014373;28;20448;-85
2021/01/07 07:39:06;;;;;;;27.30;18.80;;;3.10;99.90;;;;;;5014205;28;20506;-85
2021/01/07 07:41:40;;;;;;;31.57;20.97;;;3.00;99.90;;;;;;5014183;28;20557;-85
2021/01/07 07:44:07;;;;;;;34.27;21.67;;;2.90;99.90;;;;;;5014144;28;20446;-86
2021/01/07 07:46:33;;;;;;;37.70;23.53;;;2.90;99.90;;;;;;5014348;28;20483;-85
2021/01/07 07:49:01;;;;;;;37.17;23.43;;;2.80;99.90;;;;;;5014246;28;20509;-86
2021/01/07 07:51:28;;;;;;;41.67;23.93;;;2.80;99.90;;;;;;5013822;28;20509;-86
2021/01/07 07:54:07;;;;;;;37.60;23.43;;;2.80;99.90;;;;;;5014313;28;20492;-89
2021/01/07 07:56:33;;;;;;;34.60;21.63;;;2.90;99.90;;;;;;5015599;28;20536;-86
2021/01/07 07:59:01;;;;;;;33.97;22.30;;;3.00;99.90;;;;;;5014956;28;20468;-86
2021/01/07 08:01:38;;;;;;;33.90;22.63;;;2.90;99.90;;;;;;5016343;28;20459;-86
2021/01/07 08:04:13;;;;;;;35.17;22.17;;;2.90;99.90;;;;;;5014035;28;20905;-87
2021/01/07 08:06:39;;;;;;;37.03;22.20;;;2.90;99.90;;;;;;5028285;28;20441;-86
2021/01/07 08:09:08;;;;;;;37.80;20.40;;;3.00;99.90;;;;;;5018270;28;20461;-86
2021/01/07 08:11:45;;;;;;;36.00;24.33;;;3.10;99.90;;;;;;5016303;28;20511;-86
2021/01/07 08:14:12;;;;;;;34.13;20.93;;;2.90;99.90;;;;;;5014848;28;20862;-86
2021/01/07 08:16:39;;;;;;;29.30;18.73;;;2.80;99.90;;;;;;5012802;28;20550;-87
2021/01/07 08:19:29;;;;;;;29.60;19.23;;;2.90;99.90;;;;;;5013793;28;20481;-87
2021/01/07 08:21:56;;;;;;;32.63;19.40;;;2.90;99.90;;;;;;5013332;28;20521;-89
2021/01/07 08:24:25;;;;;;;25.20;16.57;;;2.90;99.90;;;;;;5015255;28;20532;-87
2021/01/07 08:27:16;;;;;;;26.77;16.47;;;3.00;99.90;;;;;;5017458;28;20465;-87
2021/01/07 08:29:46;;;;;;;29.83;17.47;;;3.00;99.90;;;;;;5016172;28;20449;-87
2021/01/07 08:32:15;;;;;;;27.93;15.87;;;3.10;99.90;;;;;;5017075;28;20754;-86
2021/01/07 08:34:43;;;;;;;29.10;16.83;;;3.00;99.90;;;;;;5018283;28;20442;-86
2021/01/07 08:37:12;;;;;;;30.73;19.60;;;3.10;99.90;;;;;;5017645;28;20912;-87
2021/01/07 08:39:41;;;;;;;22.27;15.37;;;2.90;99.90;;;;;;5018782;28;20500;-86
2021/01/07 08:42:09;;;;;;;28.43;16.87;;;3.00;99.90;;;;;;5018334;28;20603;-86
2021/01/07 08:44:36;;;;;;;24.40;16.53;;;3.10;99.90;;;;;;5016944;28;20470;-86
2021/01/07 08:47:04;;;;;;;28.43;16.50;;;3.20;99.90;;;;;;5015747;28;20442;-86
2021/01/07 08:49:30;;;;;;;24.37;16.33;;;3.20;99.90;;;;;;5016923;28;20537;-86
2021/01/07 08:52:00;;;;;;;24.13;15.10;;;3.20;99.90;;;;;;5017739;28;20442;-89
2021/01/07 08:54:27;;;;;;;28.47;17.40;;;3.30;99.90;;;;;;5017528;28;20444;-86
2021/01/07 08:56:55;;;;;;;29.47;17.03;;;3.30;99.90;;;;;;5016817;28;20489;-86
2021/01/07 08:59:25;;;;;;;28.50;18.83;;;3.30;99.90;;;;;;5016809;28;20486;-86
2021/01/07 09:01:53;;;;;;;29.93;18.43;;;3.30;99.90;;;;;;5017318;28;20464;-86
2021/01/07 09:04:38;;;;;;;25.13;17.47;;;3.30;99.90;;;;;;5016420;28;20443;-86
2021/01/07 09:07:07;;;;;;;26.70;16.50;;;3.40;99.90;;;;;;5016112;28;20476;-86
2021/01/07 09:09:41;;;;;;;28.57;18.70;;;3.50;99.90;;;;;;5016436;28;20537;-86
2021/01/07 09:12:11;;;;;;;27.37;17.83;;;3.40;99.90;;;;;;5016288;28;20529;-86
2021/01/07 09:14:52;;;;;;;27.67;18.30;;;3.50;99.90;;;;;;5016201;28;20911;-86
2021/01/07 09:17:24;;;;;;;28.17;17.23;;;3.30;99.90;;;;;;5007987;28;20505;-88
2021/01/07 09:20:06;;;;;;;27.00;18.07;;;3.30;99.90;;;;;;5007379;28;20504;-87
2021/01/07 09:22:32;;;;;;;30.10;18.07;;;3.20;99.90;;;;;;5005131;28;20628;-86
2021/01/07 09:28:05;;;;;;;24.90;16.63;;;3.20;99.90;;;;;;5004608;28;20454;-88
2021/01/07 09:30:36;;;;;;;32.70;17.17;;;3.30;99.90;;;;;;5007772;28;20903;-87
2021/01/07 09:33:06;;;;;;;25.20;16.20;;;3.10;99.90;;;;;;5006629;28;20449;-90
2021/01/07 09:36:07;;;;;;;26.97;16.43;;;3.30;99.90;;;;;;5002675;28;20459;-87
2021/01/07 09:39:01;;;;;;;21.73;15.07;;;3.20;99.90;;;;;;5001844;28;20543;-90
2021/01/07 09:42:05;;;;;;;22.40;14.80;;;3.40;99.90;;;;;;4999793;28;20508;-89
2021/01/07 09:50:49;;;;;;;22.63;14.50;;;3.30;99.90;;;;;;4936013;28;20824;-87
2021/01/07 09:53:46;;;;;;;;;;;;;;;;;;;;;
2021/01/07 10:02:11;;;;;;;17.40;12.80;;;3.40;99.90;;;;;;4967168;28;20446;-86
2021/01/07 10:10:49;;;;;;;14.83;10.70;;;3.50;99.90;;;;;;4949609;28;20494;-85
2021/01/07 10:14:16;;;;;;;17.10;11.33;;;3.50;99.90;;;;;;5014054;28;20446;-86
2021/01/07 10:17:24;;;;;;;16.37;11.30;;;3.50;99.90;;;;;;4969142;28;20516;-86
2021/01/07 10:20:06;;;;;;;18.00;11.47;;;3.40;99.90;;;;;;4952811;28;20549;-87
2021/01/07 10:22:45;;;;;;;16.30;12.23;;;3.50;99.90;;;;;;4953368;29;20552;-88
2021/01/07 10:25:33;;;;;;;17.43;11.53;;;3.60;99.90;;;;;;4953199;29;20452;-87
2021/01/07 10:28:08;;;;;;;15.80;11.40;;;3.60;99.90;;;;;;4940067;29;20492;-87
2021/01/07 10:30:39;;;;;;;17.77;13.17;;;3.40;99.90;;;;;;4978789;28;20477;-87
2021/01/07 10:34:07;;;;;;;;;;;;;;;;;;;;;
2021/01/07 10:37:13;;;;;;;15.17;11.87;;;3.40;99.90;;;;;;5012432;28;20455;-86
2021/01/07 10:39:52;;;;;;;14.40;10.83;;;3.60;99.90;;;;;;5010526;28;20953;-85
2021/01/07 10:48:45;;;;;;;13.50;10.47;;;3.70;99.90;;;;;;5013789;28;20461;-86
2021/01/07 10:51:30;;;;;;;14.80;11.97;;;3.70;99.90;;;;;;5016397;28;20449;-86
2021/01/07 10:54:56;;;;;;;15.33;11.73;;;3.50;99.90;;;;;;5009098;28;20823;-86
2021/01/07 10:58:40;;;;;;;17.40;11.43;;;3.60;99.90;;;;;;5020225;28;20561;-86
2021/01/07 11:05:40;;;;;;;13.77;10.60;;;3.40;99.90;;;;;;4973569;28;20891;-86
2021/01/07 11:11:41;;;;;;;17.43;11.77;;;3.40;99.90;;;;;;5010515;28;20451;-87
2021/01/07 11:14:49;;;;;;;17.43;11.33;;;3.50;99.90;;;;;;5015550;28;20507;-85
2021/01/07 11:17:24;;;;;;;16.70;12.90;;;3.50;99.90;;;;;;4969233;28;20469;-87
2021/01/07 11:20:53;;;;;;;14.83;11.43;;;3.30;99.90;;;;;;5014597;28;20500;-87
2021/01/07 11:29:11;;;;;;;18.57;13.60;;;3.50;99.90;;;;;;5012104;28;20460;-87
2021/01/07 11:31:51;;;;;;;18.67;13.80;;;3.40;99.90;;;;;;4983305;28;20477;-86
2021/01/07 11:34:36;;;;;;;15.17;12.73;;;3.50;99.90;;;;;;5013883;28;20999;-86
2021/01/07 11:37:51;;;;;;;15.77;12.00;;;3.40;99.90;;;;;;5010779;28;20454;-86
2021/01/07 11:46:38;;;;;;;18.63;13.40;;;3.50;99.90;;;;;;5002824;28;20432;-87
2021/01/07 11:49:11;;;;;;;15.83;12.50;;;3.50;99.90;;;;;;5007963;28;20435;-87
2021/01/07 11:55:02;;;;;;;16.80;13.20;;;3.70;99.90;;;;;;5010658;28;20525;-87
2021/01/07 11:57:34;;;;;;;15.50;12.30;;;3.50;99.90;;;;;;5013875;28;20486;-86
2021/01/07 12:00:24;;;;;;;16.37;12.10;;;3.60;99.90;;;;;;5017325;28;20987;-87
2021/01/07 12:05:47;;;;;;;16.13;11.70;;;3.50;99.90;;;;;;5017586;28;20888;-88
2021/01/07 12:08:30;;;;;;;15.87;11.77;;;3.60;99.90;;;;;;5016574;28;20472;-87
2021/01/07 12:10:59;;;;;;;14.40;10.83;;;3.60;99.90;;;;;;5018321;28;20457;-86
2021/01/07 12:13:33;;;;;;;13.20;10.20;;;3.60;99.90;;;;;;5018028;28;20475;-88
2021/01/07 12:16:00;;;;;;;13.70;10.37;;;3.80;99.90;;;;;;5016689;28;20494;-87
2021/01/07 12:18:29;;;;;;;16.17;11.83;;;3.70;99.90;;;;;;5019364;28;20569;-87
2021/01/07 12:20:57;;;;;;;16.37;11.37;;;3.70;99.90;;;;;;5008586;28;20537;-87
2021/01/07 12:23:25;;;;;;;15.93;10.73;;;3.60;99.90;;;;;;5013473;28;20458;-87
2021/01/07 12:25:52;;;;;;;14.50;11.13;;;3.50;99.90;;;;;;5016599;28;20456;-86
2021/01/07 12:28:30;;;;;;;14.97;10.60;;;3.60;99.90;;;;;;5018046;28;20563;-87
2021/01/07 12:31:01;;;;;;;13.60;10.17;;;3.50;99.90;;;;;;5024151;28;20527;-86
2021/01/07 12:33:37;;;;;;;15.30;10.57;;;3.40;99.90;;;;;;5016211;28;20815;-88
2021/01/07 12:36:06;;;;;;;16.57;12.23;;;3.40;99.90;;;;;;5015662;28;20856;-86
2021/01/07 12:38:50;;;;;;;15.00;10.73;;;3.50;99.90;;;;;;5006110;28;20550;-87
2021/01/07 12:41:24;;;;;;;15.27;11.20;;;3.50;99.90;;;;;;5010755;28;20492;-86
2021/01/07 12:43:56;;;;;;;13.80;11.33;;;3.50;99.90;;;;;;5020513;28;20460;-87
2021/01/07 12:46:28;;;;;;;15.53;12.13;;;3.50;99.90;;;;;;5015515;28;20465;-87
2021/01/07 12:48:57;;;;;;;16.10;11.50;;;3.60;99.90;;;;;;5016009;28;20949;-87
2021/01/07 12:51:24;;;;;;;18.60;13.60;;;3.60;99.90;;;;;;5017583;28;20545;-86
2021/01/07 12:53:50;;;;;;;15.83;11.83;;;3.50;99.90;;;;;;5015525;28;20537;-87
2021/01/07 12:56:29;;;;;;;17.63;13.13;;;3.60;99.90;;;;;;5015482;28;20542;-86
2021/01/07 12:59:03;;;;;;;21.63;14.87;;;3.60;99.90;;;;;;5015723;28;20513;-87
2021/01/07 13:01:38;;;;;;;20.37;14.60;;;3.40;99.90;;;;;;5015135;28;20485;-86
2021/01/07 13:04:15;;;;;;;18.33;13.73;;;3.50;99.90;;;;;;5017617;28;20442;-87
2021/01/07 13:06:51;;;;;;;18.27;13.57;;;3.50;99.90;;;;;;5025512;28;20477;-86
2021/01/07 13:09:22;;;;;;;19.20;13.80;;;3.60;99.90;;;;;;5028967;28;20746;-86
2021/01/07 13:11:50;;;;;;;16.90;13.10;;;3.60;99.90;;;;;;5027831;28;20530;-86
2021/01/07 13:14:17;;;;;;;17.80;12.83;;;3.60;99.90;;;;;;5017272;28;20450;-87
2021/01/07 13:16:51;;;;;;;20.63;15.50;;;3.40;99.90;;;;;;5022588;28;20469;-87
2021/01/07 13:19:20;;;;;;;27.67;19.27;;;3.40;99.90;;;;;;5015148;28;20486;-87
2021/01/07 13:21:51;;;;;;;20.33;16.27;;;3.30;99.90;;;;;;5016368;28;20918;-86
2021/01/07 13:24:21;;;;;;;19.93;15.20;;;3.40;99.90;;;;;;5016341;28;20936;-87
2021/01/07 13:26:49;;;;;;;22.03;15.73;;;3.30;99.90;;;;;;5015748;28;20450;-87
2021/01/07 13:29:29;;;;;;;25.30;16.80;;;3.20;99.90;;;;;;5016889;28;20446;-87
2021/01/07 13:32:02;;;;;;;24.10;17.53;;;3.20;99.90;;;;;;5010187;28;20477;-87
2021/01/07 13:34:29;;;;;;;20.23;14.73;;;3.20;99.90;;;;;;5010100;28;20488;-86
2021/01/07 13:36:55;;;;;;;21.87;15.67;;;3.30;99.90;;;;;;5017272;28;20534;-87
2021/01/07 13:39:22;;;;;;;20.47;14.27;;;3.30;99.90;;;;;;5006768;28;20457;-86
2021/01/07 13:41:48;;;;;;;18.17;13.60;;;3.30;99.90;;;;;;5015762;28;20515;-87
2021/01/07 13:44:26;;;;;;;20.43;15.37;;;3.30;99.90;;;;;;5016170;28;20454;-86
2021/01/07 13:46:56;;;;;;;16.87;13.00;;;3.40;99.90;;;;;;5015577;28;20446;-86
2021/01/07 13:49:26;;;;;;;19.13;13.97;;;3.30;99.90;;;;;;5022356;28;20511;-87
2021/01/07 13:51:59;;;;;;;16.77;12.60;;;3.30;99.90;;;;;;5027314;28;20549;-87
2021/01/07 13:57:16;;;;;;;17.53;12.87;;;3.40;99.90;;;;;;4973337;28;20441;-88